createdAt,value
2018-11-07T00:00:00.769Z,14.27
2018-11-07T00:02:30.061Z,14.17
2018-11-07T00:04:59.179Z,14.80
2018-11-07T00:07:27.967Z,14.00
2018-11-07T00:09:56.748Z,13.93
2018-11-07T00:12:25.483Z,13.43
2018-11-07T00:14:54.183Z,14.60
2018-11-07T00:17:23.082Z,13.87
2018-11-07T00:19:52.021Z,13.10
2018-11-07T00:22:20.767Z,14.27
2018-11-07T00:24:49.519Z,13.30
2018-11-07T00:27:18.232Z,14.70
2018-11-07T00:29:46.952Z,16.50
2018-11-07T00:32:15.667Z,13.70
2018-11-07T00:34:44.400Z,15.23
2018-11-07T00:37:13.228Z,14.63
2018-11-07T00:39:41.927Z,13.90
2018-11-07T00:42:10.673Z,15.43
2018-11-07T00:44:39.404Z,15.10
2018-11-07T00:47:08.220Z,13.57
2018-11-07T00:49:37.035Z,13.70
2018-11-07T00:52:05.850Z,12.80
2018-11-07T00:54:34.611Z,14.10
2018-11-07T00:57:03.333Z,14.77
2018-11-07T00:59:32.035Z,12.77
2018-11-07T01:02:00.740Z,13.37
2018-11-07T01:04:29.491Z,15.00
2018-11-07T01:06:58.248Z,14.17
2018-11-07T01:09:27.081Z,12.70
2018-11-07T01:11:55.779Z,14.07
2018-11-07T01:14:26.584Z,13.73
2018-11-07T01:16:55.460Z,14.27
2018-11-07T01:19:24.611Z,12.50
2018-11-07T01:21:53.372Z,12.53
2018-11-07T01:24:22.228Z,12.33
2018-11-07T01:26:50.971Z,12.73
2018-11-07T01:29:19.679Z,14.27
2018-11-07T01:31:48.380Z,14.07
2018-11-07T01:34:17.105Z,12.67
2018-11-07T01:36:45.820Z,12.40
2018-11-07T01:39:14.524Z,12.67
2018-11-07T01:41:43.647Z,13.30
2018-11-07T01:44:12.299Z,12.93
2018-11-07T01:46:41.020Z,12.23
2018-11-07T01:49:09.723Z,13.10
2018-11-07T01:51:38.665Z,13.30
2018-11-07T01:54:07.485Z,13.37
2018-11-07T01:56:36.231Z,12.90
2018-11-07T01:59:05.371Z,11.63
2018-11-07T02:01:34.189Z,13.40
2018-11-07T02:04:02.899Z,13.47
2018-11-07T02:06:31.599Z,12.60
2018-11-07T02:09:01.048Z,12.53
2018-11-07T02:11:29.747Z,12.63
2018-11-07T02:13:59.778Z,14.13
2018-11-07T02:16:28.471Z,12.60
2018-11-07T02:18:57.187Z,12.77
2018-11-07T02:21:26.061Z,13.10
2018-11-07T02:23:54.783Z,13.37
2018-11-07T02:26:23.549Z,12.30
2018-11-07T02:28:52.183Z,13.23
2018-11-07T02:31:20.897Z,12.17
2018-11-07T02:33:49.604Z,13.97
2018-11-07T02:36:18.356Z,13.53
2018-11-07T02:38:47.051Z,13.83
2018-11-07T02:41:15.815Z,12.13
2018-11-07T02:43:44.534Z,13.07
2018-11-07T02:46:13.867Z,13.50
2018-11-07T02:48:42.605Z,14.17
2018-11-07T02:51:13.392Z,12.37
2018-11-07T02:53:42.097Z,13.80
2018-11-07T02:56:10.875Z,13.47
2018-11-07T02:58:39.584Z,14.13
2018-11-07T03:01:08.706Z,14.07
2018-11-07T03:03:37.359Z,14.63
2018-11-07T03:06:06.081Z,12.10
2018-11-07T03:08:34.928Z,15.03
2018-11-07T03:11:04.418Z,13.03
2018-11-07T03:13:33.569Z,13.50
2018-11-07T03:16:02.345Z,13.73
2018-11-07T03:18:31.096Z,13.33
2018-11-07T03:20:59.791Z,13.67
2018-11-07T03:23:28.489Z,13.73
2018-11-07T03:25:57.247Z,13.50
2018-11-07T03:28:25.991Z,12.13
2018-11-07T03:30:54.716Z,12.63
2018-11-07T03:33:23.452Z,12.70
2018-11-07T03:35:52.183Z,12.00
2018-11-07T03:38:21.041Z,11.47
2018-11-07T03:40:49.720Z,12.00
2018-11-07T03:43:18.457Z,13.30
2018-11-07T03:45:52.604Z,11.80
2018-11-07T03:48:21.336Z,12.80
2018-11-07T03:50:50.044Z,11.73
2018-11-07T03:53:18.974Z,11.93
2018-11-07T03:55:47.590Z,11.10
2018-11-07T03:58:16.603Z,11.20
2018-11-07T04:00:45.304Z,11.30
2018-11-07T04:03:14.144Z,11.83
2018-11-07T04:05:42.849Z,12.57
2018-11-07T04:08:11.816Z,12.00
2018-11-07T04:10:40.576Z,11.80
2018-11-07T04:13:09.422Z,11.77
2018-11-07T04:15:38.325Z,11.10
2018-11-07T04:18:07.125Z,11.20
2018-11-07T04:20:36.566Z,12.20
2018-11-07T04:23:05.544Z,13.23
2018-11-07T04:25:34.844Z,11.37
2018-11-07T04:28:03.774Z,11.90
2018-11-07T04:30:32.471Z,12.00
2018-11-07T04:33:01.191Z,11.70
2018-11-07T04:35:29.908Z,11.80
2018-11-07T04:37:58.636Z,12.70
2018-11-07T04:40:27.349Z,11.50
2018-11-07T04:42:56.056Z,11.30
2018-11-07T04:45:24.793Z,11.67
2018-11-07T04:47:53.493Z,11.07
2018-11-07T04:50:22.199Z,11.97
2018-11-07T04:52:51.084Z,11.60
2018-11-07T04:55:19.804Z,12.17
2018-11-07T04:57:48.520Z,11.53
2018-11-07T05:00:17.295Z,12.10
2018-11-07T05:02:47.253Z,10.93
2018-11-07T05:05:15.953Z,10.70
2018-11-07T05:07:44.700Z,10.27
2018-11-07T05:10:13.447Z,10.57
2018-11-07T05:12:42.933Z,9.90
2018-11-07T05:15:11.628Z,10.33
2018-11-07T05:17:40.458Z,9.67
2018-11-07T05:20:10.151Z,10.50
2018-11-07T05:22:38.877Z,10.03
2018-11-07T05:25:09.963Z,10.63
2018-11-07T05:27:38.852Z,10.77
2018-11-07T05:30:08.464Z,10.70
2018-11-07T05:32:37.297Z,10.43
2018-11-07T05:35:06.333Z,10.27
2018-11-07T05:37:35.132Z,12.33
2018-11-07T05:40:04.249Z,11.27
2018-11-07T05:42:32.944Z,11.10
2018-11-07T05:45:02.461Z,10.07
2018-11-07T05:47:31.155Z,9.87
2018-11-07T05:50:00.138Z,11.47
2018-11-07T05:52:28.824Z,11.60
2018-11-07T05:54:57.516Z,10.90
2018-11-07T05:57:26.221Z,10.67
2018-11-07T05:59:54.923Z,10.67
2018-11-07T06:02:23.639Z,10.40
2018-11-07T06:04:53.496Z,10.03
2018-11-07T06:07:22.300Z,12.07
2018-11-07T06:09:51.049Z,10.43
2018-11-07T06:12:19.886Z,10.37
2018-11-07T06:14:48.828Z,10.70
2018-11-07T06:17:17.520Z,11.13
2018-11-07T06:19:46.256Z,11.93
2018-11-07T06:22:14.959Z,11.00
2018-11-07T06:24:43.748Z,10.57
2018-11-07T06:27:12.559Z,11.70
2018-11-07T06:29:41.293Z,11.40
2018-11-07T06:32:09.995Z,10.50
2018-11-07T06:34:39.144Z,10.90
2018-11-07T06:37:07.856Z,11.40
2018-11-07T06:39:37.697Z,11.87
2018-11-07T06:42:06.391Z,11.77
2018-11-07T06:44:35.124Z,11.00
2018-11-07T06:47:03.812Z,10.97
2018-11-07T06:49:34.839Z,11.10
2018-11-07T06:52:03.547Z,10.87
2018-11-07T06:54:32.262Z,10.60
2018-11-07T06:57:00.963Z,11.23
2018-11-07T06:59:30.592Z,10.80
2018-11-07T07:01:59.376Z,9.43
2018-11-07T07:04:28.140Z,10.60
2018-11-07T07:06:56.918Z,9.20
2018-11-07T07:09:25.623Z,10.13
2018-11-07T07:11:54.331Z,10.67
2018-11-07T07:14:23.244Z,10.77
2018-11-07T07:16:51.972Z,9.90
2018-11-07T07:19:20.774Z,9.33
2018-11-07T07:21:49.533Z,9.33
2018-11-07T07:24:18.259Z,9.10
2018-11-07T07:26:46.977Z,7.73
2018-11-07T07:29:15.682Z,7.10
2018-11-07T07:31:44.380Z,7.20
2018-11-07T07:34:13.295Z,6.67
2018-11-07T07:36:42.000Z,6.60
2018-11-07T07:39:10.721Z,7.03
2018-11-07T07:41:39.484Z,7.23
2018-11-07T07:44:08.175Z,6.30
2018-11-07T07:46:37.043Z,7.03
2018-11-07T07:49:05.879Z,6.80
2018-11-07T07:51:34.574Z,6.90
2018-11-07T07:54:03.397Z,6.60
2018-11-07T07:56:32.129Z,5.93
2018-11-07T07:59:00.784Z,5.83
2018-11-07T08:01:29.529Z,5.30
2018-11-07T08:03:58.615Z,5.60
2018-11-07T08:06:27.315Z,5.43
2018-11-07T08:08:56.025Z,5.20
2018-11-07T08:11:24.744Z,4.77
2018-11-07T08:13:53.509Z,4.87
2018-11-07T08:16:22.207Z,4.10
2018-11-07T08:18:50.905Z,3.80
2018-11-07T08:21:19.709Z,3.50
2018-11-07T08:23:48.396Z,4.03
2018-11-07T08:26:17.108Z,3.60
2018-11-07T08:28:45.801Z,3.80
2018-11-07T08:31:14.508Z,3.60
2018-11-07T08:33:43.230Z,2.97
2018-11-07T08:36:12.092Z,3.30
2018-11-07T08:38:40.797Z,3.57
2018-11-07T08:41:09.519Z,3.40
2018-11-07T08:43:38.247Z,2.73
2018-11-07T08:46:07.332Z,3.53
2018-11-07T08:48:36.182Z,3.00
2018-11-07T08:51:05.092Z,3.50
2018-11-07T08:53:34.044Z,2.70
2018-11-07T08:56:02.767Z,3.10
2018-11-07T08:58:31.586Z,2.90
2018-11-07T09:01:00.384Z,3.00
2018-11-07T09:03:29.139Z,3.07
2018-11-07T09:05:57.844Z,3.60
2018-11-07T09:08:26.563Z,2.97
2018-11-07T09:10:55.328Z,3.37
2018-11-07T09:13:24.068Z,2.80
2018-11-07T09:15:52.834Z,3.37
2018-11-07T09:18:21.636Z,3.73
2018-11-07T09:20:50.327Z,2.70
2018-11-07T09:23:19.086Z,2.80
2018-11-07T09:25:47.815Z,3.30
2018-11-07T09:28:16.519Z,2.87
2018-11-07T09:30:45.238Z,2.80
2018-11-07T09:33:13.952Z,2.80
2018-11-07T09:35:42.652Z,3.40
2018-11-07T09:38:11.340Z,3.23
2018-11-07T09:40:40.035Z,2.90
2018-11-07T09:43:08.807Z,2.90
2018-11-07T09:45:37.499Z,2.50
2018-11-07T09:48:07.175Z,2.00
2018-11-07T09:50:35.818Z,2.50
2018-11-07T09:53:04.748Z,1.67
2018-11-07T09:55:33.442Z,1.57
2018-11-07T09:58:02.588Z,1.50
2018-11-07T10:00:31.371Z,1.40
2018-11-07T10:03:00.093Z,1.60
2018-11-07T10:05:28.848Z,1.33
2018-11-07T10:07:57.640Z,1.50
2018-11-07T10:10:26.416Z,1.50
2018-11-07T10:12:55.132Z,1.60
2018-11-07T10:15:23.852Z,1.40
2018-11-07T10:17:52.615Z,1.80
2018-11-07T10:20:22.769Z,1.43
2018-11-07T10:22:51.751Z,2.00
2018-11-07T10:25:20.672Z,1.50
2018-11-07T10:27:49.750Z,1.47
2018-11-07T10:30:21.693Z,1.40
2018-11-07T10:32:50.866Z,1.50
2018-11-07T10:35:19.671Z,1.73
2018-11-07T10:37:49.558Z,1.50
2018-11-07T10:40:21.011Z,1.90
2018-11-07T10:42:49.777Z,1.33
2018-11-07T10:45:18.566Z,1.50
2018-11-07T10:47:47.981Z,1.40
2018-11-07T10:50:17.711Z,1.37
2018-11-07T10:52:46.915Z,1.50
2018-11-07T10:55:16.336Z,1.50
2018-11-07T10:57:45.364Z,1.50
2018-11-07T11:00:20.444Z,1.20
2018-11-07T11:02:54.603Z,1.37
2018-11-07T11:05:23.396Z,1.80
2018-11-07T11:07:52.212Z,1.27
2018-11-07T11:10:21.604Z,1.60
2018-11-07T11:12:50.329Z,1.70
2018-11-07T11:15:19.028Z,1.50
2018-11-07T11:17:47.779Z,1.50
2018-11-07T11:20:16.518Z,1.60
2018-11-07T11:22:45.287Z,1.33
2018-11-07T11:25:14.036Z,1.33
2018-11-07T11:27:42.780Z,1.20
2018-11-07T11:30:11.479Z,1.70
2018-11-07T11:32:40.294Z,1.80
2018-11-07T11:35:10.403Z,1.60
2018-11-07T11:37:39.289Z,1.20
2018-11-07T11:40:11.279Z,1.40
2018-11-07T11:42:40.779Z,1.27
2018-11-07T11:45:11.344Z,1.40
2018-11-07T11:47:40.433Z,1.70
2018-11-07T11:50:11.617Z,1.37
2018-11-07T11:52:41.701Z,1.50
2018-11-07T11:55:10.880Z,1.70
2018-11-07T11:57:40.192Z,1.47
2018-11-07T12:00:10.823Z,1.47
2018-11-07T12:02:39.269Z,1.50
2018-11-07T12:05:09.719Z,1.37
2018-11-07T12:07:38.851Z,1.10
2018-11-07T12:10:13.332Z,1.30
2018-11-07T12:12:42.267Z,1.10
2018-11-07T12:15:11.033Z,1.13
2018-11-07T12:17:39.834Z,1.40
2018-11-07T12:20:08.913Z,1.40
2018-11-07T12:22:37.644Z,1.10
2018-11-07T12:25:07.135Z,1.50
2018-11-07T12:27:35.852Z,1.20
2018-11-07T12:30:07.104Z,1.43
2018-11-07T12:32:35.860Z,1.17
2018-11-07T12:35:04.692Z,1.50
2018-11-07T12:37:33.410Z,1.33
2018-11-07T12:40:02.148Z,1.57
2018-11-07T12:42:31.001Z,1.23
2018-11-07T12:44:59.879Z,1.80
2018-11-07T12:47:28.779Z,1.40
2018-11-07T12:49:57.694Z,1.90
2018-11-07T12:52:26.336Z,1.27
2018-11-07T12:54:55.135Z,1.20
2018-11-07T12:57:24.483Z,1.40
2018-11-07T12:59:53.040Z,1.00
2018-11-07T13:02:21.786Z,1.50
2018-11-07T13:04:50.669Z,1.20
2018-11-07T13:07:19.368Z,1.10
2018-11-07T13:09:48.060Z,1.30
2018-11-07T13:12:17.195Z,1.40
2018-11-07T13:14:45.895Z,1.20
2018-11-07T13:17:14.712Z,1.10
2018-11-07T13:19:43.604Z,1.40
2018-11-07T13:22:12.319Z,0.97
2018-11-07T13:24:41.285Z,1.27
2018-11-07T13:27:10.002Z,0.97
2018-11-07T13:29:38.707Z,1.20
2018-11-07T13:32:07.516Z,1.40
2018-11-07T13:34:36.833Z,1.60
2018-11-07T13:37:05.823Z,1.10
2018-11-07T13:39:34.413Z,1.50
2018-11-07T13:42:03.139Z,1.27
2018-11-07T13:44:31.904Z,1.47
2018-11-07T13:47:00.588Z,1.20
2018-11-07T13:49:29.289Z,1.20
2018-11-07T13:51:58.036Z,1.33
2018-11-07T13:54:26.829Z,1.00
2018-11-07T13:56:55.576Z,1.40
2018-11-07T13:59:24.354Z,1.70
2018-11-07T14:01:52.996Z,1.30
2018-11-07T14:04:21.692Z,1.60
2018-11-07T14:06:50.436Z,1.43
2018-11-07T14:09:19.148Z,1.43
2018-11-07T14:11:47.884Z,1.20
2018-11-07T14:14:16.620Z,1.33
2018-11-07T14:16:45.473Z,1.37
2018-11-07T14:19:14.476Z,1.30
2018-11-07T14:21:43.172Z,1.30
2018-11-07T14:24:12.312Z,1.50
2018-11-07T14:26:41.116Z,1.50
2018-11-07T14:29:09.980Z,1.70
2018-11-07T14:31:38.776Z,1.37
2018-11-07T14:34:07.559Z,1.10
2018-11-07T14:36:36.380Z,1.90
2018-11-07T14:39:07.590Z,1.90
2018-11-07T14:41:36.260Z,1.67
2018-11-07T14:44:05.012Z,1.20
2018-11-07T14:46:33.744Z,1.20
2018-11-07T14:49:02.492Z,1.40
2018-11-07T14:51:31.252Z,1.60
2018-11-07T14:53:59.993Z,1.60
2018-11-07T14:56:28.707Z,1.40
2018-11-07T14:58:57.412Z,1.47
2018-11-07T15:01:26.118Z,1.50
2018-11-07T15:03:54.835Z,1.37
2018-11-07T15:06:23.603Z,1.50
2018-11-07T15:08:52.706Z,1.30
2018-11-07T15:11:21.458Z,1.60
2018-11-07T15:13:50.193Z,1.60
2018-11-07T15:16:18.899Z,1.60
2018-11-07T15:18:47.616Z,1.23
2018-11-07T15:21:16.384Z,1.43
2018-11-07T15:23:45.096Z,1.63
2018-11-07T15:26:13.815Z,1.40
2018-11-07T15:28:42.625Z,2.03
2018-11-07T15:31:11.344Z,1.40
2018-11-07T15:33:40.119Z,1.53
2018-11-07T15:36:08.940Z,1.10
2018-11-07T15:38:38.028Z,1.57
2018-11-07T15:41:06.767Z,2.20
2018-11-07T15:43:35.628Z,1.63
2018-11-07T15:46:04.252Z,1.50
2018-11-07T15:48:33.040Z,1.70
2018-11-07T15:51:07.305Z,2.20
2018-11-07T15:53:36.027Z,7.43
2018-11-07T15:56:05.399Z,3.77
2018-11-07T15:58:34.179Z,2.80
2018-11-07T16:01:02.936Z,1.90
2018-11-07T16:03:36.944Z,2.10
2018-11-07T16:06:05.714Z,2.27
2018-11-07T16:08:34.429Z,2.27
2018-11-07T16:11:03.139Z,3.20
2018-11-07T16:13:31.962Z,2.60
2018-11-07T16:16:00.645Z,3.17
2018-11-07T16:18:30.350Z,2.80
2018-11-07T16:20:59.022Z,2.40
2018-11-07T16:23:27.994Z,2.33
2018-11-07T16:25:56.652Z,1.90
2018-11-07T16:28:25.332Z,2.40
2018-11-07T16:30:54.085Z,1.90
2018-11-07T16:33:22.799Z,1.50
2018-11-07T16:35:51.589Z,1.93
2018-11-07T16:38:20.370Z,2.07
2018-11-07T16:40:49.899Z,2.00
2018-11-07T16:43:18.442Z,1.90
2018-11-07T16:45:47.164Z,2.10
2018-11-07T16:48:15.969Z,1.53
2018-11-07T16:50:44.639Z,1.47
2018-11-07T16:53:13.336Z,2.10
2018-11-07T16:58:17.452Z,2.10
2018-11-07T17:00:46.213Z,3.90
2018-11-07T17:03:14.943Z,3.30
2018-11-07T17:05:43.745Z,2.43
2018-11-07T17:08:12.448Z,2.40
2018-11-07T17:10:41.208Z,2.40
2018-11-07T17:13:09.907Z,2.33
2018-11-07T17:15:38.672Z,2.30
2018-11-07T17:18:07.336Z,2.90
2018-11-07T17:20:36.153Z,2.20
2018-11-07T17:23:05.005Z,2.60
2018-11-07T17:25:33.714Z,2.50
2018-11-07T17:28:02.417Z,2.33
2018-11-07T17:30:31.184Z,2.33
2018-11-07T17:32:59.913Z,2.30
2018-11-07T17:35:28.658Z,2.70
2018-11-07T17:37:57.421Z,2.53
2018-11-07T17:40:26.145Z,3.00
2018-11-07T17:42:54.859Z,3.80
2018-11-07T17:45:23.626Z,2.77
2018-11-07T17:47:52.744Z,3.13
2018-11-07T17:50:22.308Z,2.50
2018-11-07T17:52:51.720Z,2.60
2018-11-07T17:55:21.135Z,2.53
2018-11-07T17:57:49.961Z,2.23
2018-11-07T18:00:20.281Z,3.37
2018-11-07T18:02:49.042Z,2.10
2018-11-07T18:05:17.758Z,2.80
2018-11-07T18:07:46.517Z,2.00
2018-11-07T18:10:16.600Z,2.20
2018-11-07T18:12:45.665Z,2.60
2018-11-07T18:15:14.433Z,2.87
2018-11-07T18:17:43.169Z,3.23
2018-11-07T18:20:13.037Z,3.10
2018-11-07T18:22:41.841Z,3.03
2018-11-07T18:25:11.877Z,2.30
2018-11-07T18:27:40.884Z,2.47
2018-11-07T18:30:11.738Z,3.07
2018-11-07T18:32:40.945Z,3.17
2018-11-07T18:35:11.039Z,2.83
2018-11-07T18:37:39.712Z,3.40
2018-11-07T18:40:10.739Z,2.70
2018-11-07T18:42:39.947Z,3.70
2018-11-07T18:45:09.529Z,3.57
2018-11-07T18:47:38.913Z,3.50
2018-11-07T18:50:08.785Z,3.63
2018-11-07T18:52:37.475Z,3.20
2018-11-07T18:55:08.356Z,3.00
2018-11-07T18:57:37.087Z,3.13
2018-11-07T19:00:11.180Z,3.10
2018-11-07T19:02:40.393Z,2.67
2018-11-07T19:05:09.492Z,3.37
2018-11-07T19:07:38.403Z,2.90
2018-11-07T19:10:11.828Z,3.40
2018-11-07T19:12:40.691Z,3.00
2018-11-07T19:15:11.473Z,3.13
2018-11-07T19:17:41.408Z,3.47
2018-11-07T19:20:11.347Z,3.23
2018-11-07T19:22:40.118Z,3.50
2018-11-07T19:25:11.284Z,2.80
2018-11-07T19:27:40.024Z,3.77
2018-11-07T19:30:12.471Z,3.87
2018-11-07T19:32:41.597Z,2.60
2018-11-07T19:35:11.711Z,2.50
2018-11-07T19:37:40.504Z,2.97
2018-11-07T19:40:11.618Z,2.80
2018-11-07T19:42:40.482Z,2.63
2018-11-07T19:45:11.428Z,2.80
2018-11-07T19:47:40.244Z,2.90
2018-11-07T19:50:10.697Z,2.63
2018-11-07T19:52:39.434Z,2.93
2018-11-07T19:55:10.524Z,3.20
2018-11-07T19:57:39.439Z,2.90
2018-11-07T20:00:10.488Z,1.97
2018-11-07T20:02:39.199Z,2.83
2018-11-07T20:05:07.979Z,2.60
2018-11-07T20:07:37.502Z,2.60
2018-11-07T20:10:08.611Z,2.53
2018-11-07T20:12:37.577Z,2.50
2018-11-07T20:15:07.200Z,3.10
2018-11-07T20:17:36.001Z,2.63
2018-11-07T20:20:05.007Z,3.37
2018-11-07T20:22:33.751Z,2.30
2018-11-07T20:25:02.552Z,2.63
2018-11-07T20:27:31.597Z,2.40
2018-11-07T20:30:00.828Z,2.23
2018-11-07T20:32:29.933Z,2.40
2018-11-07T20:34:58.725Z,2.63
2018-11-07T20:37:28.270Z,2.47
2018-11-07T20:39:57.033Z,2.63
2018-11-07T20:42:25.747Z,2.27
2018-11-07T20:44:54.553Z,2.60
2018-11-07T20:47:23.272Z,3.30
2018-11-07T20:49:51.972Z,2.10
2018-11-07T20:52:20.683Z,2.30
2018-11-07T20:54:49.447Z,2.37
2018-11-07T20:57:18.103Z,2.70
2018-11-07T20:59:46.835Z,2.30
2018-11-07T21:02:15.588Z,2.50
2018-11-07T21:04:44.327Z,2.33
2018-11-07T21:07:13.038Z,2.77
2018-11-07T21:09:41.820Z,2.40
2018-11-07T21:12:10.541Z,2.70
2018-11-07T21:14:39.362Z,2.00
2018-11-07T21:17:08.301Z,2.73
2018-11-07T21:19:37.117Z,3.07
2018-11-07T21:22:08.899Z,2.60
2018-11-07T21:24:37.827Z,2.83
2018-11-07T21:27:06.718Z,2.80
2018-11-07T21:29:35.407Z,3.47
2018-11-07T21:32:04.849Z,2.87
2018-11-07T21:34:33.639Z,4.30
2018-11-07T21:37:02.426Z,2.80
2018-11-07T21:39:31.160Z,2.60
2018-11-07T21:42:00.089Z,2.73
2018-11-07T21:44:28.791Z,2.90
2018-11-07T21:46:57.536Z,2.77
2018-11-07T21:49:26.248Z,2.50
2018-11-07T21:51:54.980Z,3.07
2018-11-07T21:54:23.827Z,2.57
2018-11-07T21:56:52.522Z,2.73
2018-11-07T21:59:21.250Z,2.50
2018-11-07T22:01:50.308Z,2.77
2018-11-07T22:04:19.283Z,3.07
2018-11-07T22:06:48.072Z,2.90
2018-11-07T22:09:16.852Z,2.70
2018-11-07T22:11:46.009Z,2.57
2018-11-07T22:14:14.765Z,2.43
2018-11-07T22:16:43.455Z,3.10
2018-11-07T22:19:12.151Z,2.97
2018-11-07T22:21:40.848Z,2.60
2018-11-07T22:24:09.696Z,2.90
2018-11-07T22:26:38.264Z,2.20
2018-11-07T22:29:07.037Z,2.77
2018-11-07T22:31:35.749Z,2.90
2018-11-07T22:34:04.498Z,2.97
2018-11-07T22:36:33.191Z,2.97
2018-11-07T22:39:02.444Z,3.20
2018-11-07T22:41:31.125Z,2.23
2018-11-07T22:43:59.831Z,2.60
2018-11-07T22:46:28.553Z,2.97
2018-11-07T22:48:57.347Z,2.70
2018-11-07T22:51:26.255Z,2.80
2018-11-07T22:53:54.956Z,2.90
2018-11-07T22:56:23.667Z,2.40
2018-11-07T22:58:52.493Z,2.83
2018-11-07T23:01:21.192Z,2.57
2018-11-07T23:03:50.568Z,2.30
2018-11-07T23:06:19.236Z,3.13
2018-11-07T23:08:48.073Z,2.70
2018-11-07T23:11:16.784Z,2.90
2018-11-07T23:13:45.480Z,3.17
2018-11-07T23:16:14.201Z,2.60
2018-11-07T23:18:43.383Z,3.03
2018-11-07T23:21:12.084Z,3.47
2018-11-07T23:23:41.009Z,3.43
2018-11-07T23:26:09.716Z,3.00
2018-11-07T23:28:39.429Z,3.30
2018-11-07T23:31:08.266Z,4.10
2018-11-07T23:33:37.445Z,3.63
2018-11-07T23:36:06.285Z,3.50
2018-11-07T23:38:35.271Z,3.10
2018-11-07T23:41:11.022Z,3.83
2018-11-07T23:43:40.068Z,3.97
2018-11-07T23:46:08.760Z,2.73
2018-11-07T23:48:37.983Z,3.50
2018-11-07T23:51:06.756Z,3.40
2018-11-07T23:53:35.608Z,3.53
2018-11-07T23:56:04.388Z,3.33
2018-11-07T23:58:33.082Z,3.40
